首页
METAR-TAF:

METAR-TAF

机场 :

Watertown, 南达科他州, 美国

纬度: 44-54-17N, 经度: 097-08-58W, 海拔: 532米

当前天气观测

该预报发布于52分钟前的16:53 UTC
风速9节,风向东南
温度 26°C
湿度 74%
气压 1005 hPa
能見度: 16.1公里
天空无云

METAR: KATY 241653Z AUTO 14009KT 10SM CLR 26/21 A2968 RMK AO2 SLP039 T02610206

时间: 12:45 (17:45 UTC)

预报

该预报发布于21分钟前的17:24 UTC
预报有效从24日的 18点(UTC)到 25日的 18点(UTC)
风速9节,风向东南
能見度: 10公里
多云层高于25000英尺
从 24日的 2000点(UTC)
风速11节,风向西转西南,有时为17节阵风
能見度: 10公里
散云层高于25000英尺
从 25日的 0300点(UTC)
风速5节,风向多变
能見度: 10公里
散云层高于25000英尺

TAF: KATY 241724Z 2418/2518 14009KT P6SM BKN250 FM242000 25011G17KT P6SM SCT250 FM250300 VRB05KT P6SM SCT250

超过4000个机场的气象观测和天气预报(METAR&TAF报告)。

可查询的气象台以黄色和红色小点在地图上表示。

将鼠标移到小点上方,可查看气象台名称。

然后点击查看天气观测和预报。

如需切换地图:点击带黑十字的绿色按钮放大地图;点击带横线的绿色按钮缩小地图;或者点击绿色箭头查看邻近地区的地图。


METAR-TAF: